CYXP

Details ICAO CYXP (YXP)
Name Pangnirtung
Region Canada
Timezone Unknown (UTC+0.0)
Plans Departing 11
Arriving 19
Stats Elevation 73 ft / 22 m (AMSL)
Location 66.144940° -65.713130°
Runways 1
Magnetic Variation 30.337° W
Sunrise 2018-05-24 06:06:08 UTC / 2018-05-24 06:06:08 Local
Sunset 2018-05-25 02:36:09 UTC / 2018-05-25 02:36:09 Local
Advertisement - Login to hide

Runways

ID Width Length Bearing (true) Bearing (mag) Surface Threshold Offset Overrun Length
06T 98 ft / 30 m 2,919 ft / 890 m 60.95° 91.29° Gravel 0 ft / 0 m 0 ft / 0 m
24T 98 ft / 30 m 2,919 ft / 890 m 240.97° 271.31° Gravel 0 ft / 0 m 0 ft / 0 m

Map

Weather


0- 5 10 15 20 25 30 35+ Temperature / ° C

Clouds and Precipitation
Forecast for 2018-05-24 12:00 UTC. Updated 3 hours ago

Ground ~20,000 ft ~40,000 ft Winds

METAR

CYXP 241400Z 26009KT 15SM -SN SCT009 BKN015 OVC020 M03/M05 A2985 RMK ST3SF3SC2 CIG ESTD SLP112

TAF

TAF CYXP 241238Z 2413/2422 26007KT P6SM SCT008 OVC020 TEMPO 2413/2416 4SM -SN BKN008 OVC015 FM241600 25010KT P6SM SCT012 BKN025 TEMPO 2416/2422 4SM -SN BKN012 OVC020 RMK NXT FCST BY 241900Z

Frequencies

Recorded 118.50 MHz AWOS
Unicom 122.10 MHz MULTICOM
Warning: Do not use this data for real-world aviation or navigation. No guarantee of current accuracy is given.